Time;durP1;ratioP1;P1;durP2;ratioP2;P2;SDS_P1;SDS_P2;PMS_P1;PMS_P2;Temp;Humidity;BMP_temperature;BMP_pressure;BME280_temperature;BME280_humidity;BME280_pressure;Samples;Min_cycle;Max_cycle;Signal;HPM_P1;HPM_P2
2023/11/07 00:00:28;;;;;;;12.90;3.20;;;;;;;;;;5031774;28;20407;-82
2023/11/07 00:02:54;;;;;;;5.07;3.00;;;;;;;;;;5025375;28;20752;-82
2023/11/07 00:05:21;;;;;;;9.70;3.93;;;;;;;;;;5031892;28;20485;-82
2023/11/07 00:07:47;;;;;;;4.90;3.17;;;;;;;;;;5032002;28;20405;-81
2023/11/07 00:10:13;;;;;;;7.50;3.70;;;;;;;;;;5032010;28;20476;-81
2023/11/07 00:12:39;;;;;;;9.30;3.83;;;;;;;;;;5031996;28;20408;-81
2023/11/07 00:15:05;;;;;;;6.13;2.80;;;;;;;;;;5031607;28;20483;-82
2023/11/07 00:17:31;;;;;;;6.40;3.17;;;;;;;;;;5032114;28;20414;-82
2023/11/07 00:19:57;;;;;;;7.23;4.00;;;;;;;;;;5031895;28;20421;-82
2023/11/07 00:22:23;;;;;;;6.70;3.60;;;;;;;;;;5025221;28;20410;-82
2023/11/07 00:24:50;;;;;;;6.33;3.70;;;;;;;;;;5029231;28;20458;-82
2023/11/07 00:27:17;;;;;;;6.40;3.40;;;;;;;;;;5031973;28;20429;-82
2023/11/07 00:29:45;;;;;;;10.80;3.60;;;;;;;;;;5030868;28;20506;-83
2023/11/07 00:32:11;;;;;;;7.60;2.93;;;;;;;;;;5031337;28;20922;-82
2023/11/07 00:34:37;;;;;;;8.10;3.73;;;;;;;;;;5046160;28;20437;-83
2023/11/07 00:37:03;;;;;;;7.90;3.90;;;;;;;;;;5035688;28;20417;-83
2023/11/07 00:39:29;;;;;;;8.30;3.80;;;;;;;;;;5032746;28;20437;-84
2023/11/07 00:41:56;;;;;;;8.33;2.90;;;;;;;;;;5035729;28;20414;-83
2023/11/07 00:44:22;;;;;;;7.83;3.20;;;;;;;;;;5035014;28;20820;-82
2023/11/07 00:46:48;;;;;;;5.87;3.13;;;;;;;;;;5035473;28;20894;-83
2023/11/07 00:49:14;;;;;;;6.80;3.33;;;;;;;;;;5028352;28;20175;-83
2023/11/07 00:51:40;;;;;;;5.33;3.03;;;;;;;;;;5026080;28;20441;-83
2023/11/07 00:54:08;;;;;;;5.50;2.73;;;;;;;;;;5034938;28;20514;-84
2023/11/07 00:56:33;;;;;;;8.97;2.50;;;;;;;;;;5035306;28;20457;-83
2023/11/07 00:58:59;;;;;;;7.07;3.67;;;;;;;;;;5034949;28;20420;-83
2023/11/07 01:01:25;;;;;;;6.73;3.37;;;;;;;;;;5035076;28;20433;-83
2023/11/07 01:03:51;;;;;;;9.50;3.17;;;;;;;;;;5034852;28;20835;-84
2023/11/07 01:06:17;;;;;;;8.43;3.37;;;;;;;;;;5025565;28;20481;-84
2023/11/07 01:08:43;;;;;;;6.57;2.07;;;;;;;;;;5035110;28;20497;-82
2023/11/07 01:11:09;;;;;;;7.60;3.37;;;;;;;;;;5032435;28;20422;-83
2023/11/07 01:13:35;;;;;;;6.53;3.40;;;;;;;;;;5028279;28;20436;-82
2023/11/07 01:16:02;;;;;;;5.23;2.70;;;;;;;;;;5034671;28;20411;-82
2023/11/07 01:18:28;;;;;;;6.77;2.97;;;;;;;;;;5025309;28;20421;-82
2023/11/07 01:20:54;;;;;;;4.93;2.50;;;;;;;;;;5034895;28;20402;-81
2023/11/07 01:23:20;;;;;;;4.93;2.47;;;;;;;;;;5034838;28;20921;-82
2023/11/07 01:25:46;;;;;;;10.27;2.80;;;;;;;;;;5034489;28;20535;-81
2023/11/07 01:28:12;;;;;;;9.70;3.43;;;;;;;;;;5034763;28;20421;-82
2023/11/07 01:30:38;;;;;;;6.23;2.60;;;;;;;;;;5034273;28;20422;-83
2023/11/07 01:33:04;;;;;;;5.13;2.67;;;;;;;;;;5034500;28;20978;-82
2023/11/07 01:35:30;;;;;;;4.33;1.90;;;;;;;;;;5034457;28;20509;-81
2023/11/07 01:37:56;;;;;;;10.03;2.63;;;;;;;;;;5034477;28;20406;-82
2023/11/07 01:40:22;;;;;;;4.87;3.07;;;;;;;;;;5011437;28;20423;-81
2023/11/07 01:42:49;;;;;;;4.90;2.40;;;;;;;;;;5034402;28;20403;-82
2023/11/07 01:45:15;;;;;;;8.80;3.20;;;;;;;;;;5033905;28;20477;-81
2023/11/07 01:47:42;;;;;;;6.13;3.00;;;;;;;;;;5033641;28;20533;-81
2023/11/07 01:50:10;;;;;;;6.43;3.60;;;;;;;;;;5034170;28;20521;-82
2023/11/07 01:52:36;;;;;;;8.93;4.87;;;;;;;;;;5034232;28;20894;-82
2023/11/07 01:55:02;;;;;;;6.67;3.23;;;;;;;;;;5033960;28;20466;-81
2023/11/07 01:57:28;;;;;;;10.43;4.00;;;;;;;;;;5034111;28;20417;-82
2023/11/07 01:59:54;;;;;;;5.47;3.80;;;;;;;;;;5033679;28;20421;-81
2023/11/07 02:02:23;;;;;;;7.40;3.13;;;;;;;;;;5034063;28;20419;-83
2023/11/07 02:04:49;;;;;;;9.20;3.63;;;;;;;;;;5033885;28;20472;-82
2023/11/07 02:07:15;;;;;;;8.50;4.50;;;;;;;;;;5024499;28;20968;-82
2023/11/07 02:09:41;;;;;;;10.27;4.07;;;;;;;;;;5033881;28;20418;-82
2023/11/07 02:12:09;;;;;;;5.87;3.00;;;;;;;;;;5033751;28;20568;-82
2023/11/07 02:14:36;;;;;;;7.43;3.07;;;;;;;;;;5033471;28;20425;-81
2023/11/07 02:17:03;;;;;;;8.67;4.03;;;;;;;;;;5033718;28;20419;-82
2023/11/07 02:19:28;;;;;;;11.90;3.43;;;;;;;;;;5033619;28;20410;-81
2023/11/07 02:21:57;;;;;;;6.20;3.47;;;;;;;;;;5024233;28;20421;-81
2023/11/07 02:24:23;;;;;;;10.97;5.17;;;;;;;;;;5033509;28;20458;-81
2023/11/07 02:26:53;;;;;;;5.57;3.30;;;;;;;;;;5030769;28;20464;-82
2023/11/07 02:29:21;;;;;;;7.17;3.73;;;;;;;;;;5033294;28;20441;-82
2023/11/07 02:31:46;;;;;;;14.03;4.40;;;;;;;;;;5033383;28;20416;-81
2023/11/07 02:34:13;;;;;;;8.70;3.70;;;;;;;;;;5032567;28;20920;-82
2023/11/07 02:36:39;;;;;;;8.07;3.43;;;;;;;;;;5033867;28;20427;-82
2023/11/07 02:39:07;;;;;;;7.27;4.40;;;;;;;;;;5033863;28;20456;-82
2023/11/07 02:41:33;;;;;;;7.07;4.00;;;;;;;;;;5033786;28;20417;-81
2023/11/07 02:43:59;;;;;;;12.50;4.83;;;;;;;;;;5032072;28;20926;-82
2023/11/07 02:46:26;;;;;;;11.67;4.00;;;;;;;;;;5033478;28;20565;-82
2023/11/07 02:48:51;;;;;;;9.57;4.23;;;;;;;;;;5033670;28;21019;-80
2023/11/07 02:51:18;;;;;;;8.63;3.70;;;;;;;;;;5033123;28;20521;-81
2023/11/07 02:53:46;;;;;;;7.80;3.43;;;;;;;;;;5033510;28;20533;-81
2023/11/07 02:56:13;;;;;;;7.10;3.13;;;;;;;;;;5033180;28;20477;-81
2023/11/07 02:58:39;;;;;;;8.13;2.63;;;;;;;;;;5032154;28;20431;-81
2023/11/07 03:01:06;;;;;;;7.27;3.30;;;;;;;;;;5033469;28;20417;-81
2023/11/07 03:03:32;;;;;;;8.07;3.30;;;;;;;;;;5033449;28;20409;-81
2023/11/07 03:05:58;;;;;;;12.63;3.93;;;;;;;;;;5033313;28;20500;-81
2023/11/07 03:08:24;;;;;;;4.40;4.00;;;;;;;;;;5033392;28;20857;-81
2023/11/07 03:10:50;;;;;;;10.27;3.53;;;;;;;;;;5033338;28;20426;-81
2023/11/07 03:13:18;;;;;;;5.43;3.50;;;;;;;;;;5048660;28;20409;-81
2023/11/07 03:15:44;;;;;;;12.40;4.23;;;;;;;;;;5032880;28;20427;-81
2023/11/07 03:18:10;;;;;;;12.23;4.50;;;;;;;;;;5033111;28;20414;-81
2023/11/07 03:20:36;;;;;;;8.20;3.50;;;;;;;;;;5033198;28;20422;-81
2023/11/07 03:23:02;;;;;;;4.97;2.80;;;;;;;;;;5033118;28;20489;-81
2023/11/07 03:25:28;;;;;;;6.67;3.57;;;;;;;;;;5033032;28;20527;-81
2023/11/07 03:27:54;;;;;;;8.00;2.93;;;;;;;;;;5033099;28;20430;-80
2023/11/07 03:30:21;;;;;;;9.03;3.27;;;;;;;;;;5032724;28;20414;-81
2023/11/07 03:32:46;;;;;;;6.20;3.60;;;;;;;;;;5032987;28;20920;-81
2023/11/07 03:35:13;;;;;;;7.70;3.97;;;;;;;;;;5033023;28;20460;-80
2023/11/07 03:37:39;;;;;;;8.03;3.97;;;;;;;;;;5033006;28;20414;-81
2023/11/07 03:40:06;;;;;;;10.43;3.80;;;;;;;;;;5033005;28;20409;-81
2023/11/07 03:42:32;;;;;;;7.67;4.90;;;;;;;;;;5032968;28;20413;-81
2023/11/07 03:44:58;;;;;;;5.83;3.93;;;;;;;;;;5032437;28;20514;-80
2023/11/07 03:47:24;;;;;;;8.97;4.00;;;;;;;;;;5032960;28;20420;-80
2023/11/07 03:49:51;;;;;;;6.30;4.20;;;;;;;;;;5032936;28;20420;-82
2023/11/07 03:52:17;;;;;;;10.63;4.67;;;;;;;;;;5032829;28;20409;-81
2023/11/07 03:54:43;;;;;;;6.80;3.50;;;;;;;;;;5032657;28;20806;-81
2023/11/07 03:57:09;;;;;;;6.70;3.37;;;;;;;;;;5032854;28;20471;-81
2023/11/07 03:59:35;;;;;;;8.50;4.03;;;;;;;;;;5032428;28;20421;-81
2023/11/07 04:02:03;;;;;;;8.07;4.10;;;;;;;;;;5032774;28;20484;-81
2023/11/07 04:04:29;;;;;;;5.93;3.70;;;;;;;;;;5032679;28;20507;-80
2023/11/07 04:06:54;;;;;;;11.80;4.00;;;;;;;;;;5032784;28;20413;-82
2023/11/07 04:09:21;;;;;;;6.30;3.40;;;;;;;;;;5033586;28;20903;-81
2023/11/07 04:11:47;;;;;;;10.17;4.30;;;;;;;;;;5036482;28;20552;-81
2023/11/07 04:14:14;;;;;;;6.70;3.33;;;;;;;;;;5036225;28;20464;-80
2023/11/07 04:16:40;;;;;;;5.97;4.00;;;;;;;;;;5035968;28;20409;-80
2023/11/07 04:19:06;;;;;;;6.83;3.47;;;;;;;;;;5036417;28;20406;-79
2023/11/07 04:21:33;;;;;;;9.00;4.30;;;;;;;;;;5036384;28;20500;-79
2023/11/07 04:23:59;;;;;;;10.87;5.33;;;;;;;;;;5036314;28;20893;-80
2023/11/07 04:26:27;;;;;;;11.43;4.87;;;;;;;;;;5036123;28;20477;-79
2023/11/07 04:28:53;;;;;;;6.30;3.90;;;;;;;;;;5034556;28;20468;-79
2023/11/07 04:31:19;;;;;;;7.20;5.20;;;;;;;;;;5036135;28;21111;-79
2023/11/07 04:33:45;;;;;;;10.73;4.57;;;;;;;;;;5035854;28;20413;-79
2023/11/07 04:36:13;;;;;;;9.40;5.30;;;;;;;;;;5036129;28;20422;-80
2023/11/07 04:38:41;;;;;;;7.47;3.70;;;;;;;;;;5035753;28;21111;-79
2023/11/07 04:41:07;;;;;;;6.97;4.43;;;;;;;;;;5036038;28;20422;-79
2023/11/07 04:43:35;;;;;;;8.00;4.10;;;;;;;;;;5034339;28;20747;-80
2023/11/07 04:46:01;;;;;;;5.80;4.33;;;;;;;;;;5035772;28;20480;-80
2023/11/07 04:48:27;;;;;;;10.47;4.77;;;;;;;;;;5035874;28;20411;-80
2023/11/07 04:50:53;;;;;;;11.40;4.53;;;;;;;;;;5035831;28;20414;-79
2023/11/07 04:53:19;;;;;;;8.67;5.17;;;;;;;;;;5035661;28;20487;-80
2023/11/07 04:55:45;;;;;;;13.33;5.93;;;;;;;;;;5035503;28;20466;-79
2023/11/07 04:58:12;;;;;;;9.27;6.50;;;;;;;;;;5035679;28;20420;-80
2023/11/07 05:00:38;;;;;;;8.77;5.30;;;;;;;;;;5035554;28;20410;-80
2023/11/07 05:03:05;;;;;;;7.60;4.70;;;;;;;;;;5035538;28;20425;-80
2023/11/07 05:05:31;;;;;;;9.00;5.70;;;;;;;;;;5035464;28;20501;-80
2023/11/07 05:07:57;;;;;;;8.93;4.70;;;;;;;;;;5034450;28;20424;-79
2023/11/07 05:10:23;;;;;;;10.10;4.77;;;;;;;;;;5035558;28;20414;-80
2023/11/07 05:12:49;;;;;;;8.53;4.50;;;;;;;;;;5034195;28;20408;-78
2023/11/07 05:15:15;;;;;;;10.57;5.17;;;;;;;;;;5035079;28;20425;-80
2023/11/07 05:17:41;;;;;;;9.47;5.17;;;;;;;;;;5035288;28;20742;-79
2023/11/07 05:20:10;;;;;;;13.73;5.70;;;;;;;;;;5035202;28;20414;-79
2023/11/07 05:22:37;;;;;;;10.10;5.33;;;;;;;;;;5034335;28;20501;-80
2023/11/07 05:25:06;;;;;;;7.13;4.63;;;;;;;;;;5035158;28;20465;-80
2023/11/07 05:27:32;;;;;;;6.57;4.33;;;;;;;;;;5035070;28;20468;-79
2023/11/07 05:29:58;;;;;;;7.97;5.40;;;;;;;;;;5033371;28;20982;-80
2023/11/07 05:32:24;;;;;;;8.87;5.60;;;;;;;;;;5035078;28;20225;-80
2023/11/07 05:34:50;;;;;;;6.60;4.03;;;;;;;;;;5034998;28;20418;-80
2023/11/07 05:37:17;;;;;;;7.87;4.27;;;;;;;;;;5035061;28;20578;-80
2023/11/07 05:39:46;;;;;;;9.33;6.20;;;;;;;;;;5035193;28;20449;-79
2023/11/07 05:42:13;;;;;;;8.23;5.13;;;;;;;;;;5034756;28;20415;-79
2023/11/07 05:44:39;;;;;;;11.30;5.80;;;;;;;;;;5034353;28;20544;-80
2023/11/07 05:47:06;;;;;;;9.17;5.97;;;;;;;;;;5034761;28;20465;-79
2023/11/07 05:49:32;;;;;;;12.40;6.10;;;;;;;;;;5034861;28;20797;-80
2023/11/07 05:51:58;;;;;;;10.50;5.33;;;;;;;;;;5034727;28;20447;-80
2023/11/07 05:54:24;;;;;;;7.57;4.47;;;;;;;;;;5034311;28;20466;-80
2023/11/07 05:56:50;;;;;;;7.57;5.13;;;;;;;;;;5034728;28;20417;-80
2023/11/07 05:59:17;;;;;;;7.97;4.80;;;;;;;;;;5034197;28;20438;-79
2023/11/07 06:01:43;;;;;;;6.70;4.43;;;;;;;;;;5034487;28;20409;-80
2023/11/07 06:04:09;;;;;;;7.40;4.50;;;;;;;;;;5034196;28;20409;-81
2023/11/07 06:06:36;;;;;;;10.00;5.40;;;;;;;;;;5034394;28;20504;-82
2023/11/07 06:09:02;;;;;;;7.70;4.13;;;;;;;;;;5034013;28;20175;-82
2023/11/07 06:11:28;;;;;;;7.00;4.40;;;;;;;;;;5033792;28;20504;-82
2023/11/07 06:13:54;;;;;;;9.20;4.30;;;;;;;;;;5023978;28;20866;-82
2023/11/07 06:16:21;;;;;;;6.50;4.40;;;;;;;;;;5033777;28;20773;-82
2023/11/07 06:18:47;;;;;;;9.17;4.00;;;;;;;;;;5033725;28;20405;-83
2023/11/07 06:21:13;;;;;;;11.10;4.73;;;;;;;;;;5031845;28;20424;-81
2023/11/07 06:23:39;;;;;;;8.53;4.70;;;;;;;;;;5023182;28;20524;-82
2023/11/07 06:26:06;;;;;;;10.27;4.50;;;;;;;;;;5012223;28;20508;-81
2023/11/07 06:28:32;;;;;;;11.70;4.40;;;;;;;;;;5013315;28;20873;-80
2023/11/07 06:30:58;;;;;;;9.83;3.40;;;;;;;;;;5014276;28;20419;-80
2023/11/07 06:33:24;;;;;;;10.27;4.67;;;;;;;;;;5014059;28;20424;-81
2023/11/07 06:35:50;;;;;;;8.93;3.20;;;;;;;;;;5014119;28;20418;-81
2023/11/07 06:38:18;;;;;;;8.20;4.23;;;;;;;;;;5014153;28;20477;-80
2023/11/07 06:40:44;;;;;;;9.67;5.70;;;;;;;;;;5014046;28;20420;-80
2023/11/07 06:43:10;;;;;;;8.10;4.50;;;;;;;;;;5013662;28;20855;-80
2023/11/07 06:45:36;;;;;;;6.20;3.53;;;;;;;;;;5013825;28;20481;-80
2023/11/07 06:48:03;;;;;;;9.87;4.47;;;;;;;;;;5012485;28;20513;-80
2023/11/07 06:50:30;;;;;;;9.93;4.47;;;;;;;;;;5013743;28;20446;-80
2023/11/07 06:52:56;;;;;;;7.97;4.30;;;;;;;;;;5013933;28;20411;-80
2023/11/07 06:55:24;;;;;;;9.97;4.50;;;;;;;;;;5012344;28;20478;-80
2023/11/07 06:57:52;;;;;;;12.20;5.00;;;;;;;;;;5013815;28;20430;-81
2023/11/07 07:00:21;;;;;;;10.37;5.03;;;;;;;;;;5013524;28;20420;-80
2023/11/07 07:02:48;;;;;;;10.93;5.70;;;;;;;;;;5012577;28;20922;-79
2023/11/07 07:05:14;;;;;;;9.20;4.60;;;;;;;;;;5013561;28;20214;-80
2023/11/07 07:07:40;;;;;;;10.10;4.73;;;;;;;;;;5013648;28;20770;-79
2023/11/07 07:10:09;;;;;;;10.03;5.30;;;;;;;;;;5013596;28;20510;-80
2023/11/07 07:12:34;;;;;;;8.43;4.87;;;;;;;;;;5012322;28;20422;-80
2023/11/07 07:15:00;;;;;;;10.10;5.23;;;;;;;;;;5013243;28;20424;-79
2023/11/07 07:17:27;;;;;;;6.60;4.63;;;;;;;;;;5013475;28;20501;-79
2023/11/07 07:19:53;;;;;;;6.50;4.40;;;;;;;;;;5013346;28;20416;-79
2023/11/07 07:22:27;;;;;;;5.53;4.40;;;;;;;;;;5013451;28;20418;-79
2023/11/07 07:24:54;;;;;;;13.67;4.73;;;;;;;;;;5013363;28;20483;-79
2023/11/07 07:27:21;;;;;;;10.70;4.33;;;;;;;;;;5013412;28;20427;-79
2023/11/07 07:29:47;;;;;;;7.93;3.60;;;;;;;;;;5012936;28;20414;-79
2023/11/07 07:32:13;;;;;;;10.83;4.07;;;;;;;;;;5013199;28;20415;-79
2023/11/07 07:34:40;;;;;;;8.73;3.80;;;;;;;;;;5013235;28;20482;-80
2023/11/07 07:37:09;;;;;;;9.10;4.60;;;;;;;;;;5013299;28;20563;-80
2023/11/07 07:39:35;;;;;;;8.90;3.63;;;;;;;;;;5013201;28;20565;-80
2023/11/07 07:42:11;;;;;;;8.00;4.33;;;;;;;;;;5013194;28;20499;-79
2023/11/07 07:44:37;;;;;;;8.63;3.70;;;;;;;;;;5014098;28;20458;-80
2023/11/07 07:47:03;;;;;;;6.27;3.07;;;;;;;;;;5017236;28;20488;-80
2023/11/07 07:49:32;;;;;;;4.57;3.00;;;;;;;;;;5015949;28;20427;-80
2023/11/07 07:51:59;;;;;;;10.00;4.13;;;;;;;;;;5015927;28;20516;-80
2023/11/07 07:54:25;;;;;;;6.63;2.40;;;;;;;;;;5016927;28;20466;-81
2023/11/07 07:56:55;;;;;;;9.83;5.70;;;;;;;;;;5017087;28;20477;-81
2023/11/07 07:59:23;;;;;;;6.13;3.10;;;;;;;;;;5016722;28;20404;-81
2023/11/07 08:01:52;;;;;;;8.83;3.73;;;;;;;;;;5017032;28;20908;-81
2023/11/07 08:04:18;;;;;;;9.30;4.13;;;;;;;;;;5016861;28;20412;-81
2023/11/07 08:06:44;;;;;;;8.97;3.93;;;;;;;;;;5016920;28;20430;-80
2023/11/07 08:09:13;;;;;;;10.27;3.43;;;;;;;;;;5016936;28;20173;-81
2023/11/07 08:11:39;;;;;;;6.03;3.40;;;;;;;;;;5016894;28;20587;-80
2023/11/07 08:14:05;;;;;;;6.33;2.83;;;;;;;;;;5016411;28;20418;-80
2023/11/07 08:16:32;;;;;;;6.30;3.27;;;;;;;;;;5015508;28;20789;-82
2023/11/07 08:18:59;;;;;;;4.13;3.07;;;;;;;;;;5016577;28;20419;-81
2023/11/07 08:21:25;;;;;;;9.17;3.17;;;;;;;;;;5016745;28;20492;-80
2023/11/07 08:23:51;;;;;;;5.67;3.50;;;;;;;;;;5016717;28;20469;-81
2023/11/07 08:26:17;;;;;;;5.27;3.37;;;;;;;;;;5030419;28;20902;-80
2023/11/07 08:28:43;;;;;;;6.00;3.30;;;;;;;;;;5035210;28;20925;-81
2023/11/07 08:31:11;;;;;;;13.10;4.43;;;;;;;;;;5035779;28;20429;-81
2023/11/07 08:33:37;;;;;;;10.93;5.57;;;;;;;;;;5035837;28;20443;-81
2023/11/07 08:36:03;;;;;;;7.70;4.57;;;;;;;;;;5035731;28;20508;-81
2023/11/07 08:38:29;;;;;;;9.33;3.77;;;;;;;;;;5035476;28;20415;-81
2023/11/07 08:40:56;;;;;;;5.90;3.50;;;;;;;;;;5035670;28;20415;-80
2023/11/07 08:43:22;;;;;;;9.93;5.17;;;;;;;;;;5035760;28;20864;-82
2023/11/07 08:45:49;;;;;;;11.20;3.97;;;;;;;;;;5035826;28;20560;-80
2023/11/07 08:48:15;;;;;;;6.20;3.07;;;;;;;;;;5036014;28;20781;-80
2023/11/07 08:50:41;;;;;;;4.93;2.70;;;;;;;;;;5035916;28;20426;-80
2023/11/07 08:53:07;;;;;;;8.90;3.70;;;;;;;;;;5035901;28;20180;-80
2023/11/07 08:55:33;;;;;;;6.63;3.20;;;;;;;;;;5035654;28;21000;-81
2023/11/07 08:57:59;;;;;;;5.83;3.17;;;;;;;;;;5035417;28;20185;-81
2023/11/07 09:00:27;;;;;;;5.90;2.87;;;;;;;;;;5035724;28;20423;-81
2023/11/07 09:02:53;;;;;;;6.33;3.20;;;;;;;;;;5035660;28;20413;-79
2023/11/07 09:05:19;;;;;;;7.40;3.20;;;;;;;;;;5035660;28;20862;-84
2023/11/07 09:07:46;;;;;;;6.93;2.80;;;;;;;;;;5035866;28;20415;-89
2023/11/07 09:10:12;;;;;;;6.80;2.57;;;;;;;;;;5035722;28;20418;-83
2023/11/07 09:12:40;;;;;;;5.97;2.50;;;;;;;;;;5033857;28;20430;-84
2023/11/07 09:15:07;;;;;;;17.37;3.80;;;;;;;;;;5035584;28;20500;-81
2023/11/07 09:17:33;;;;;;;6.07;3.47;;;;;;;;;;5035457;28;20416;-83
2023/11/07 09:20:02;;;;;;;6.80;2.97;;;;;;;;;;5034150;28;20427;-80
2023/11/07 09:22:28;;;;;;;4.63;1.97;;;;;;;;;;5035321;28;20903;-84
2023/11/07 09:24:54;;;;;;;13.63;2.93;;;;;;;;;;5035201;28;20505;-82
2023/11/07 09:27:20;;;;;;;6.47;2.50;;;;;;;;;;5034007;28;20474;-81
2023/11/07 09:29:47;;;;;;;5.50;2.20;;;;;;;;;;5034874;28;20427;-81
2023/11/07 09:32:13;;;;;;;6.57;2.00;;;;;;;;;;5035132;28;20459;-83
2023/11/07 09:34:40;;;;;;;4.50;2.20;;;;;;;;;;5035110;28;20440;-84
2023/11/07 09:37:07;;;;;;;5.60;1.60;;;;;;;;;;5035102;28;20177;-82
2023/11/07 09:39:33;;;;;;;2.60;1.90;;;;;;;;;;5035022;28;20409;-83
2023/11/07 09:41:59;;;;;;;5.80;1.70;;;;;;;;;;5035026;28;20433;-85
2023/11/07 09:44:25;;;;;;;4.03;2.23;;;;;;;;;;5034598;28;20513;-84
2023/11/07 09:46:52;;;;;;;6.77;1.90;;;;;;;;;;5034949;28;20413;-83
2023/11/07 09:49:19;;;;;;;4.50;2.30;;;;;;;;;;5034856;28;20408;-82
2023/11/07 09:51:48;;;;;;;6.13;2.13;;;;;;;;;;5034795;28;20417;-84
2023/11/07 09:54:18;;;;;;;3.37;2.37;;;;;;;;;;5033331;28;20467;-83
2023/11/07 09:56:46;;;;;;;4.73;1.60;;;;;;;;;;5034691;28;20406;-84
2023/11/07 09:59:28;;;;;;;3.67;1.80;;;;;;;;;;5034244;28;20436;-85
2023/11/07 10:01:54;;;;;;;5.03;2.70;;;;;;;;;;5034622;28;20746;-83
2023/11/07 10:04:20;;;;;;;5.50;2.20;;;;;;;;;;5034460;28;20406;-82
2023/11/07 10:06:47;;;;;;;4.60;1.83;;;;;;;;;;5034095;28;20475;-82
2023/11/07 10:09:14;;;;;;;4.83;1.50;;;;;;;;;;5033128;28;20428;-83
2023/11/07 10:11:44;;;;;;;4.20;1.50;;;;;;;;;;5034415;28;20429;-80
2023/11/07 10:14:10;;;;;;;5.97;1.90;;;;;;;;;;5034035;28;20405;-81
2023/11/07 10:16:37;;;;;;;5.20;2.10;;;;;;;;;;5034235;28;20437;-81
2023/11/07 10:19:04;;;;;;;5.67;1.80;;;;;;;;;;5034327;28;20409;-81
2023/11/07 10:21:33;;;;;;;7.40;2.03;;;;;;;;;;5034192;28;20417;-81
2023/11/07 10:23:59;;;;;;;4.13;2.00;;;;;;;;;;5034212;28;20419;-82
2023/11/07 10:26:25;;;;;;;4.40;1.77;;;;;;;;;;5034018;28;20469;-81
2023/11/07 10:29:14;;;;;;;3.10;1.27;;;;;;;;;;5033796;28;20417;-81
2023/11/07 10:31:42;;;;;;;8.60;3.00;;;;;;;;;;5034188;28;20424;-81
2023/11/07 10:34:14;;;;;;;4.43;1.73;;;;;;;;;;5043005;28;20401;-80
2023/11/07 10:36:40;;;;;;;6.70;1.63;;;;;;;;;;5034510;28;20410;-83
2023/11/07 10:39:09;;;;;;;5.43;1.80;;;;;;;;;;5034453;28;20424;-83
2023/11/07 10:41:35;;;;;;;7.10;2.60;;;;;;;;;;5038831;28;20772;-83
2023/11/07 10:44:15;;;;;;;3.50;2.27;;;;;;;;;;5033702;28;20409;-83
2023/11/07 10:46:42;;;;;;;5.90;2.20;;;;;;;;;;5033827;28;20224;-84
2023/11/07 10:49:09;;;;;;;4.97;2.60;;;;;;;;;;5033826;28;20413;-86
2023/11/07 10:51:35;;;;;;;4.57;2.10;;;;;;;;;;5033734;28;20493;-83
2023/11/07 10:54:01;;;;;;;6.47;1.77;;;;;;;;;;5032828;28;20444;-83
2023/11/07 10:56:30;;;;;;;5.70;1.53;;;;;;;;;;5033078;28;20492;-82
2023/11/07 10:59:03;;;;;;;2.30;1.03;;;;;;;;;;5032565;28;20411;-85
2023/11/07 11:01:31;;;;;;;3.30;2.00;;;;;;;;;;5032986;28;20411;-84
2023/11/07 11:04:00;;;;;;;3.57;1.37;;;;;;;;;;5032876;28;20783;-83
2023/11/07 11:06:26;;;;;;;2.40;0.87;;;;;;;;;;5032636;28;20965;-84
2023/11/07 11:09:00;;;;;;;2.87;1.30;;;;;;;;;;5032862;28;20923;-83
2023/11/07 11:11:30;;;;;;;2.87;1.33;;;;;;;;;;5032664;28;21018;-82
2023/11/07 11:13:57;;;;;;;3.50;0.80;;;;;;;;;;5032373;28;20439;-81
2023/11/07 11:16:23;;;;;;;2.53;0.50;;;;;;;;;;5033088;28;20470;-83
2023/11/07 11:18:56;;;;;;;2.60;0.73;;;;;;;;;;5031915;28;20833;-81
2023/11/07 11:21:35;;;;;;;2.90;0.80;;;;;;;;;;5032738;28;20416;-84
2023/11/07 11:24:01;;;;;;;1.13;0.50;;;;;;;;;;5026520;28;20414;-83
2023/11/07 11:26:37;;;;;;;2.40;1.47;;;;;;;;;;5032306;28;20471;-84
2023/11/07 11:29:22;;;;;;;4.87;0.90;;;;;;;;;;5032393;28;20826;-84
2023/11/07 11:31:48;;;;;;;2.80;0.73;;;;;;;;;;5031712;28;20477;-85
2023/11/07 11:34:28;;;;;;;3.23;0.83;;;;;;;;;;5029492;28;20405;-83
2023/11/07 11:36:57;;;;;;;2.07;0.80;;;;;;;;;;5031181;28;20414;-83
2023/11/07 11:39:29;;;;;;;2.77;1.03;;;;;;;;;;5029793;28;20492;-79
2023/11/07 11:41:55;;;;;;;3.00;1.37;;;;;;;;;;5032396;28;20405;-81
2023/11/07 11:44:24;;;;;;;2.20;1.20;;;;;;;;;;5029413;28;20461;-81
2023/11/07 11:46:50;;;;;;;2.40;0.83;;;;;;;;;;5032475;28;20462;-82
2023/11/07 11:49:17;;;;;;;6.87;3.13;;;;;;;;;;5032252;28;20452;-83
2023/11/07 11:51:46;;;;;;;2.73;0.87;;;;;;;;;;5032327;28;20421;-81
2023/11/07 11:54:13;;;;;;;2.60;0.90;;;;;;;;;;5032087;28;20457;-82
2023/11/07 11:56:48;;;;;;;1.97;1.30;;;;;;;;;;5032225;28;20409;-80
2023/11/07 11:59:15;;;;;;;2.87;1.10;;;;;;;;;;5025244;28;20964;-81
2023/11/07 12:01:50;;;;;;;1.67;0.50;;;;;;;;;;5032244;28;20410;-82
2023/11/07 12:04:29;;;;;;;1.80;0.73;;;;;;;;;;5032420;28;20418;-84
2023/11/07 12:07:08;;;;;;;4.10;0.80;;;;;;;;;;5032845;28;20505;-80
2023/11/07 12:09:42;;;;;;;6.47;0.50;;;;;;;;;;5032610;28;20749;-82
2023/11/07 12:12:08;;;;;;;2.30;0.57;;;;;;;;;;5032390;28;20407;-82
2023/11/07 12:14:47;;;;;;;1.90;0.53;;;;;;;;;;5032720;28;20416;-83
2023/11/07 12:17:14;;;;;;;4.70;0.90;;;;;;;;;;5032688;28;20763;-83
2023/11/07 12:19:43;;;;;;;1.60;0.40;;;;;;;;;;5032665;28;20415;-81
2023/11/07 12:22:09;;;;;;;1.67;0.50;;;;;;;;;;5032705;28;20760;-82
2023/11/07 12:24:35;;;;;;;2.73;0.57;;;;;;;;;;5032587;28;20420;-80
2023/11/07 12:27:02;;;;;;;2.63;0.70;;;;;;;;;;5031013;28;20456;-82
2023/11/07 12:29:28;;;;;;;1.60;0.30;;;;;;;;;;5032534;28;20188;-85
2023/11/07 12:31:54;;;;;;;4.10;0.90;;;;;;;;;;5034433;28;20436;-81
2023/11/07 12:34:33;;;;;;;3.43;0.70;;;;;;;;;;5036418;28;20423;-81
2023/11/07 12:37:07;;;;;;;3.37;0.83;;;;;;;;;;5036161;28;20756;-84
2023/11/07 12:39:33;;;;;;;2.20;0.83;;;;;;;;;;5036360;28;20416;-83
2023/11/07 12:41:59;;;;;;;2.20;0.57;;;;;;;;;;5035836;28;20423;-81
2023/11/07 12:44:27;;;;;;;2.67;0.67;;;;;;;;;;5035858;28;20744;-82
2023/11/07 12:46:53;;;;;;;1.80;0.60;;;;;;;;;;5035980;28;20455;-82
2023/11/07 12:49:19;;;;;;;2.83;0.53;;;;;;;;;;5035611;28;20411;-82
2023/11/07 12:51:45;;;;;;;3.60;0.60;;;;;;;;;;5035936;28;20507;-81
2023/11/07 12:54:14;;;;;;;2.57;0.83;;;;;;;;;;5035739;28;20509;-81
2023/11/07 12:56:42;;;;;;;4.13;0.90;;;;;;;;;;5034598;28;20425;-84
2023/11/07 12:59:12;;;;;;;1.10;0.90;;;;;;;;;;5035460;28;20449;-80
2023/11/07 13:01:39;;;;;;;3.07;0.53;;;;;;;;;;5035726;28;20406;-83
2023/11/07 13:04:13;;;;;;;4.57;0.53;;;;;;;;;;5034464;28;20427;-87
2023/11/07 13:06:50;;;;;;;2.70;0.70;;;;;;;;;;5035494;28;20467;-81
2023/11/07 13:09:20;;;;;;;1.20;0.43;;;;;;;;;;5035698;28;20421;-81
2023/11/07 13:11:46;;;;;;;1.27;0.47;;;;;;;;;;5035609;28;20425;-82
2023/11/07 13:14:12;;;;;;;1.97;0.40;;;;;;;;;;5035282;28;20423;-81
2023/11/07 13:16:41;;;;;;;5.10;1.00;;;;;;;;;;5035403;28;20415;-85
2023/11/07 13:19:06;;;;;;;1.03;0.83;;;;;;;;;;5035450;28;20484;-83
2023/11/07 13:21:32;;;;;;;1.80;0.87;;;;;;;;;;5035450;28;20817;-80
2023/11/07 13:23:58;;;;;;;2.20;0.50;;;;;;;;;;5035378;28;20174;-82
2023/11/07 13:26:28;;;;;;;3.13;0.40;;;;;;;;;;5033993;28;20484;-83
2023/11/07 13:28:55;;;;;;;2.50;0.20;;;;;;;;;;5034860;28;20179;-86
2023/11/07 13:31:21;;;;;;;3.83;0.77;;;;;;;;;;5034611;28;20783;-85
2023/11/07 13:33:46;;;;;;;0.90;0.40;;;;;;;;;;5034649;28;20456;-85
2023/11/07 13:36:16;;;;;;;1.50;0.57;;;;;;;;;;5034525;28;20186;-84
2023/11/07 13:38:42;;;;;;;1.43;0.60;;;;;;;;;;5035114;28;20456;-87
2023/11/07 13:41:08;;;;;;;2.40;0.57;;;;;;;;;;5050425;28;20424;-85
2023/11/07 13:43:35;;;;;;;2.33;0.30;;;;;;;;;;5033695;28;20410;-87
2023/11/07 13:46:01;;;;;;;9.60;0.77;;;;;;;;;;5049944;28;20513;-87
2023/11/07 13:48:26;;;;;;;4.93;0.47;;;;;;;;;;5034886;28;20413;-84
2023/11/07 13:50:52;;;;;;;2.17;0.50;;;;;;;;;;5034915;28;20405;-86
2023/11/07 13:53:19;;;;;;;3.03;0.60;;;;;;;;;;5034869;28;20401;-87
2023/11/07 13:55:45;;;;;;;2.20;0.53;;;;;;;;;;5034631;28;20465;-86
2023/11/07 13:58:11;;;;;;;2.60;0.70;;;;;;;;;;5033569;28;20925;-87
2023/11/07 14:00:37;;;;;;;3.30;0.80;;;;;;;;;;5034666;28;20197;-85
2023/11/07 14:03:03;;;;;;;3.20;0.90;;;;;;;;;;5033704;28;20492;-86
2023/11/07 14:05:32;;;;;;;3.90;1.03;;;;;;;;;;5049965;28;20204;-83
2023/11/07 14:08:01;;;;;;;2.83;0.73;;;;;;;;;;5049922;28;20439;-82
2023/11/07 14:10:31;;;;;;;1.47;0.30;;;;;;;;;;5034442;28;20404;-86
2023/11/07 14:12:57;;;;;;;4.73;0.20;;;;;;;;;;5034121;28;20439;-81
2023/11/07 14:15:31;;;;;;;0.67;0.20;;;;;;;;;;5034462;28;20418;-81
2023/11/07 14:17:58;;;;;;;1.00;0.73;;;;;;;;;;5034290;28;20416;-82
2023/11/07 14:20:24;;;;;;;5.20;0.30;;;;;;;;;;5034410;28;20832;-84
2023/11/07 14:22:54;;;;;;;1.30;0.47;;;;;;;;;;5034279;28;20502;-82
2023/11/07 14:25:20;;;;;;;2.07;0.40;;;;;;;;;;5034249;28;20473;-82
2023/11/07 14:27:46;;;;;;;0.97;0.37;;;;;;;;;;5033843;28;20446;-83
2023/11/07 14:30:15;;;;;;;2.77;0.40;;;;;;;;;;5034070;28;20423;-82
2023/11/07 14:32:42;;;;;;;1.23;0.37;;;;;;;;;;5034021;28;20421;-82
2023/11/07 14:35:10;;;;;;;2.00;0.33;;;;;;;;;;5032782;28;20777;-84
2023/11/07 14:37:36;;;;;;;3.60;1.03;;;;;;;;;;5034171;28;20421;-82
2023/11/07 14:40:10;;;;;;;2.20;0.30;;;;;;;;;;5034068;28;20502;-81